createdAt,value
2023-01-13T00:01:32.715Z,98201.75
2023-01-13T00:04:01.688Z,98201.03
2023-01-13T00:06:30.429Z,98197.84
2023-01-13T00:09:00.617Z,98202.97
2023-01-13T00:11:29.392Z,98198.34
2023-01-13T00:13:58.120Z,98194.78
2023-01-13T00:16:26.915Z,98188.47
2023-01-13T00:18:55.612Z,98199.63
2023-01-13T00:21:26.159Z,98189.53
2023-01-13T00:23:56.774Z,98184.28
2023-01-13T00:26:30.732Z,98192.75
2023-01-13T00:29:01.185Z,98192.84
2023-01-13T00:31:31.204Z,98190.66
2023-01-13T00:34:01.350Z,98198.34
2023-01-13T00:36:32.006Z,98196.66
2023-01-13T00:39:01.315Z,98187.59
2023-01-13T00:41:51.571Z,98183.59
2023-01-13T00:44:19.552Z,98177.72
2023-01-13T00:46:48.329Z,98180.88
2023-01-13T00:49:17.048Z,98171.81
2023-01-13T00:51:45.785Z,98173.91
2023-01-13T00:54:14.415Z,98173.34
2023-01-13T00:56:44.604Z,98174.88
2023-01-13T00:59:15.201Z,98169.53
2023-01-13T01:01:45.258Z,98167.44
2023-01-13T01:04:14.127Z,98160.16
2023-01-13T01:06:42.865Z,98167.34
2023-01-13T01:09:15.323Z,98160.97
2023-01-13T01:11:46.179Z,98157.25
2023-01-13T01:14:15.884Z,98154.81
2023-01-13T01:16:44.745Z,98156.59
2023-01-13T01:19:13.426Z,98156.59
2023-01-13T01:21:42.086Z,98152.88
2023-01-13T01:24:11.458Z,98164.34
2023-01-13T01:26:42.006Z,98157.16
2023-01-13T01:29:16.368Z,98164.84
2023-01-13T01:31:45.299Z,98159.25
2023-01-13T01:34:13.946Z,98158.72
2023-01-13T01:36:42.781Z,98152.88
2023-01-13T01:39:12.199Z,98151.75
2023-01-13T01:42:01.055Z,98149.31
2023-01-13T01:44:58.858Z,98158.53
2023-01-13T01:47:29.171Z,98151.91
2023-01-13T01:50:00.233Z,98152.72
2023-01-13T01:52:37.022Z,98149.81
2023-01-13T01:55:11.197Z,98148.84
2023-01-13T01:57:46.390Z,98148.19
2023-01-13T02:00:17.263Z,98141.78
2023-01-13T02:02:49.703Z,98141.97
2023-01-13T02:05:19.039Z,98139.84
2023-01-13T02:07:52.715Z,98137.50
2023-01-13T02:10:26.192Z,98138.47
2023-01-13T02:12:59.295Z,98136.84
2023-01-13T02:15:41.399Z,98133.84
2023-01-13T02:18:43.911Z,98128.91
2023-01-13T02:22:16.731Z,98131.59
2023-01-13T02:25:13.244Z,98126.34
2023-01-13T02:28:26.744Z,98125.06
2023-01-13T02:31:24.107Z,98119.06
2023-01-13T02:34:07.124Z,98121.59
2023-01-13T02:36:50.105Z,98116.72
2023-01-13T02:39:28.735Z,98123.91
2023-01-13T02:42:24.094Z,98117.63
2023-01-13T02:44:59.822Z,98110.56
2023-01-13T02:47:37.285Z,98106.22
2023-01-13T02:50:13.147Z,98097.69
2023-01-13T02:52:47.707Z,98101.44
2023-01-13T02:55:22.181Z,98098.84
2023-01-13T02:57:54.324Z,98090.13
2023-01-13T03:00:24.931Z,98091.41
2023-01-13T03:02:57.321Z,98091.47
2023-01-13T03:05:27.347Z,98102.75
2023-01-13T03:08:15.876Z,98096.69
2023-01-13T03:11:08.830Z,98090.41
2023-01-13T03:14:08.167Z,98081.44
2023-01-13T03:16:55.303Z,98089.44
2023-01-13T03:19:40.299Z,98090.91
2023-01-13T03:22:23.005Z,98094.13
2023-01-13T03:25:01.605Z,98092.84
2023-01-13T03:27:43.661Z,98090.03
2023-01-13T03:30:21.536Z,98076.03
2023-01-13T03:32:57.457Z,98079.81
2023-01-13T03:35:33.980Z,98076.94
2023-01-13T03:38:09.638Z,98076.19
2023-01-13T03:40:46.818Z,98073.44
2023-01-13T03:43:39.554Z,98076.19
2023-01-13T03:46:18.094Z,98068.75
2023-01-13T03:48:52.169Z,98066.00
2023-01-13T03:51:30.057Z,98065.94
2023-01-13T03:54:05.916Z,98068.25
2023-01-13T03:56:44.292Z,98065.28
2023-01-13T03:59:21.149Z,98065.84
2023-01-13T04:02:00.975Z,98068.03
2023-01-13T04:04:36.022Z,98056.22
2023-01-13T04:07:21.791Z,98056.78
2023-01-13T04:09:55.902Z,98065.03
2023-01-13T04:12:51.237Z,98051.94
2023-01-13T04:15:23.834Z,98055.25
2023-01-13T04:17:53.379Z,98049.41
2023-01-13T04:20:22.405Z,98047.41
2023-01-13T04:22:52.431Z,98051.94
2023-01-13T04:25:21.203Z,98055.88
2023-01-13T04:27:49.883Z,98054.66
2023-01-13T04:30:19.276Z,98054.66
2023-01-13T04:32:48.003Z,98060.78
2023-01-13T04:35:16.831Z,98066.63
2023-01-13T04:37:45.460Z,98064.03
2023-01-13T04:40:16.089Z,98073.41
2023-01-13T04:42:46.071Z,98063.53
2023-01-13T04:45:15.410Z,98068.88
2023-01-13T04:47:44.130Z,98062.91
2023-01-13T04:50:13.273Z,98060.06
2023-01-13T04:52:42.336Z,98072.06
2023-01-13T04:55:11.977Z,98074.72
2023-01-13T04:57:42.147Z,98068.97
2023-01-13T05:00:16.026Z,98063.47
2023-01-13T05:02:45.152Z,98061.13
2023-01-13T05:05:13.928Z,98051.75
2023-01-13T05:07:43.032Z,98060.66
2023-01-13T05:10:13.176Z,98060.66
2023-01-13T05:13:00.982Z,98056.09
2023-01-13T05:15:46.905Z,98055.53
2023-01-13T05:18:16.422Z,98057.72
2023-01-13T05:20:45.171Z,98059.81
2023-01-13T05:23:32.366Z,98054.72
2023-01-13T05:26:01.441Z,98056.41
2023-01-13T05:28:35.847Z,98047.66
2023-01-13T05:31:04.721Z,98039.03
2023-01-13T05:33:35.758Z,98056.72
2023-01-13T05:36:05.923Z,98055.59
2023-01-13T05:38:34.602Z,98056.09
2023-01-13T05:41:20.600Z,98060.38
2023-01-13T05:43:50.736Z,98069.50
2023-01-13T05:46:19.671Z,98057.22
2023-01-13T05:48:48.300Z,98060.94
2023-01-13T05:51:17.157Z,98060.94
2023-01-13T05:53:45.831Z,98064.03
2023-01-13T05:56:14.445Z,98062.72
2023-01-13T05:58:43.038Z,98059.25
2023-01-13T06:01:13.198Z,98064.44
2023-01-13T06:03:41.798Z,98071.41
2023-01-13T06:06:10.475Z,98069.16
2023-01-13T06:08:39.980Z,98069.72
2023-01-13T06:11:08.829Z,98076.34
2023-01-13T06:13:37.594Z,98071.34
2023-01-13T06:16:07.004Z,98082.28
2023-01-13T06:18:37.087Z,98083.63
2023-01-13T06:21:06.244Z,98083.63
2023-01-13T06:23:38.602Z,98087.03
2023-01-13T06:26:16.733Z,98085.25
2023-01-13T06:28:45.574Z,98091.13
2023-01-13T06:31:15.309Z,98083.22
2023-01-13T06:33:52.270Z,98093.41
2023-01-13T06:36:26.536Z,98095.59
2023-01-13T06:39:01.387Z,98088.00
2023-01-13T06:41:50.283Z,98086.22
2023-01-13T06:44:21.020Z,98085.41
2023-01-13T06:46:52.544Z,98091.22
2023-01-13T06:49:22.767Z,98086.03
2023-01-13T06:51:52.086Z,98092.91
2023-01-13T06:54:20.908Z,98098.31
2023-01-13T06:56:49.815Z,98093.78
2023-01-13T06:59:18.466Z,98100.03
2023-01-13T07:01:47.393Z,98097.28
2023-01-13T07:04:16.129Z,98097.53
2023-01-13T07:06:46.217Z,98102.31
2023-01-13T07:09:17.829Z,98105.88
2023-01-13T07:11:46.825Z,98101.56
2023-01-13T07:14:33.341Z,98096.72
2023-01-13T07:17:01.976Z,98102.06
2023-01-13T07:19:30.667Z,98102.06
2023-01-13T07:22:00.679Z,98100.38
2023-01-13T07:24:29.343Z,98087.50
2023-01-13T07:26:58.035Z,98084.81
2023-01-13T07:29:26.935Z,98089.94
2023-01-13T07:31:55.680Z,98086.47
2023-01-13T07:34:24.291Z,98086.47
2023-01-13T07:36:52.960Z,98099.22
2023-01-13T07:39:23.033Z,98091.47
2023-01-13T07:42:08.718Z,98096.00
2023-01-13T07:44:37.464Z,98092.53
2023-01-13T07:47:08.629Z,98091.38
2023-01-13T07:49:37.355Z,98099.66
2023-01-13T07:52:06.641Z,98095.63
2023-01-13T07:54:40.974Z,98101.78
2023-01-13T07:57:10.132Z,98098.50
2023-01-13T07:59:39.024Z,98099.66
2023-01-13T08:02:11.954Z,98092.69
2023-01-13T08:04:41.366Z,98090.13
2023-01-13T08:07:10.069Z,98092.84
2023-01-13T08:09:40.113Z,98093.41
2023-01-13T08:12:26.702Z,98092.44
2023-01-13T08:14:55.560Z,98094.13
2023-01-13T08:17:24.476Z,98107.78
2023-01-13T08:19:53.269Z,98108.66
2023-01-13T08:22:22.873Z,98101.22
2023-01-13T08:24:53.031Z,98100.09
2023-01-13T08:27:21.700Z,98096.69
2023-01-13T08:29:50.331Z,98091.97
2023-01-13T08:32:19.053Z,98086.81
2023-01-13T08:34:47.674Z,98088.91
2023-01-13T08:37:16.588Z,98079.91
2023-01-13T08:39:45.390Z,98087.13
2023-01-13T08:42:15.538Z,98082.09
2023-01-13T08:44:44.179Z,98079.97
2023-01-13T08:47:12.889Z,98071.22
2023-01-13T08:49:41.743Z,98076.97
2023-01-13T08:52:10.610Z,98076.13
2023-01-13T08:54:40.304Z,98082.06
2023-01-13T08:57:09.496Z,98079.19
2023-01-13T08:59:40.115Z,98088.34
2023-01-13T09:02:16.791Z,98087.50
2023-01-13T09:04:46.497Z,98092.03
2023-01-13T09:07:15.861Z,98098.84
2023-01-13T09:09:44.635Z,98101.25
2023-01-13T09:12:33.191Z,98097.13
2023-01-13T09:15:03.624Z,98112.50
2023-01-13T09:17:32.262Z,98122.38
2023-01-13T09:20:01.020Z,98125.88
2023-01-13T09:22:31.654Z,98142.19
2023-01-13T09:25:00.354Z,98172.13
2023-01-13T09:27:29.018Z,98191.44
2023-01-13T09:29:57.996Z,98204.00
2023-01-13T09:32:28.248Z,98227.00
2023-01-13T09:35:01.701Z,98223.34
2023-01-13T09:37:34.209Z,98227.03
2023-01-13T09:40:03.932Z,98226.69
2023-01-13T09:43:03.041Z,98225.34
2023-01-13T09:45:40.022Z,98227.75
2023-01-13T09:48:20.362Z,98212.91
2023-01-13T09:51:16.895Z,98223.88
2023-01-13T09:53:55.914Z,98227.00
2023-01-13T09:56:25.788Z,98228.84
2023-01-13T09:58:54.732Z,98236.84
2023-01-13T10:01:33.543Z,98235.72
2023-01-13T10:04:11.690Z,98235.09
2023-01-13T10:06:43.322Z,98241.59
2023-01-13T10:09:18.434Z,98232.94
2023-01-13T10:12:09.429Z,98233.34
2023-01-13T10:14:44.847Z,98242.50
2023-01-13T10:17:25.897Z,98226.41
2023-01-13T10:20:04.964Z,98236.56
2023-01-13T10:22:54.529Z,98230.19
2023-01-13T10:25:36.007Z,98226.16
2023-01-13T10:28:12.697Z,98216.78
2023-01-13T10:30:44.940Z,98206.31
2023-01-13T10:33:17.603Z,98199.94
2023-01-13T10:35:59.257Z,98195.88
2023-01-13T10:38:31.773Z,98197.94
2023-01-13T10:41:02.951Z,98200.69
2023-01-13T10:43:32.880Z,98194.41
2023-01-13T10:46:06.695Z,98193.50
2023-01-13T10:48:40.355Z,98187.19
2023-01-13T10:51:24.373Z,98181.84
2023-01-13T10:54:01.760Z,98173.44
2023-01-13T10:56:34.661Z,98162.94
2023-01-13T10:59:26.966Z,98166.22
2023-01-13T11:02:13.163Z,98163.38
2023-01-13T11:05:19.667Z,98189.03
2023-01-13T11:07:54.243Z,98193.84
2023-01-13T11:10:27.459Z,98193.50
2023-01-13T11:13:08.569Z,98188.50
2023-01-13T11:15:46.832Z,98197.06
2023-01-13T11:18:29.206Z,98204.00
2023-01-13T11:21:01.516Z,98194.16
2023-01-13T11:23:39.515Z,98188.16
2023-01-13T11:26:17.152Z,98193.34
2023-01-13T11:29:01.401Z,98190.34
2023-01-13T11:31:37.586Z,98186.59
2023-01-13T11:34:26.784Z,98184.59
2023-01-13T11:37:02.315Z,98185.41
2023-01-13T11:39:53.859Z,98189.91
2023-01-13T11:42:29.412Z,98197.06
2023-01-13T11:45:16.924Z,98202.72
2023-01-13T11:47:48.802Z,98216.56
2023-01-13T11:50:29.224Z,98204.81
2023-01-13T11:53:17.833Z,98210.41
2023-01-13T11:56:02.546Z,98210.06
2023-01-13T11:59:07.029Z,98159.75
2023-01-13T12:02:03.532Z,98140.41
2023-01-13T12:04:50.541Z,98184.59
2023-01-13T12:07:33.494Z,98172.59
2023-01-13T12:10:13.244Z,98184.75
2023-01-13T12:12:54.862Z,98182.50
2023-01-13T12:15:55.352Z,98184.28
2023-01-13T12:18:44.021Z,98191.88
2023-01-13T12:21:26.919Z,98186.38
2023-01-13T12:24:13.999Z,98180.56
2023-01-13T12:26:50.792Z,98190.19
2023-01-13T12:29:25.379Z,98180.94
2023-01-13T12:31:54.809Z,98180.06
2023-01-13T12:34:38.630Z,98169.53
2023-01-13T12:37:19.355Z,98181.84
2023-01-13T12:40:05.184Z,98186.03
2023-01-13T12:43:02.773Z,98195.56
2023-01-13T12:45:34.609Z,98198.75
2023-01-13T12:48:03.765Z,98193.16
2023-01-13T12:50:44.744Z,98207.31
2023-01-13T12:53:46.603Z,98199.94
2023-01-13T12:56:46.115Z,98202.38
2023-01-13T12:59:49.173Z,98194.63
2023-01-13T13:02:41.969Z,98197.56
2023-01-13T13:05:47.919Z,98196.59
2023-01-13T13:08:27.608Z,98197.38
2023-01-13T13:11:50.081Z,98199.22
2023-01-13T13:15:04.684Z,98196.47
2023-01-13T13:18:03.789Z,98198.41
2023-01-13T13:21:09.071Z,98202.19
2023-01-13T13:24:04.077Z,98201.13
2023-01-13T13:26:45.849Z,98198.00
2023-01-13T13:29:45.931Z,98203.44
2023-01-13T13:32:55.565Z,98206.22
2023-01-13T13:35:52.200Z,98194.19
2023-01-13T13:39:01.184Z,98198.94
2023-01-13T13:41:50.037Z,98191.88
2023-01-13T13:44:44.391Z,98201.44
2023-01-13T13:47:13.179Z,98190.91
2023-01-13T13:49:46.837Z,98191.63
2023-01-13T13:52:25.785Z,98202.75
2023-01-13T13:54:59.411Z,98201.94
2023-01-13T13:57:38.656Z,98194.63
2023-01-13T14:00:23.070Z,98189.31
2023-01-13T14:02:56.213Z,98193.03
2023-01-13T14:05:30.735Z,98196.28
2023-01-13T14:08:10.835Z,98196.84
2023-01-13T14:10:46.019Z,98188.63
2023-01-13T14:13:20.198Z,98200.03
2023-01-13T14:15:51.812Z,98196.31
2023-01-13T14:18:22.592Z,98214.75
2023-01-13T14:21:00.580Z,98213.28
2023-01-13T14:23:32.434Z,98217.91
2023-01-13T14:26:08.824Z,98228.00
2023-01-13T14:28:40.851Z,98230.19
2023-01-13T14:31:11.961Z,98240.28
2023-01-13T14:33:46.172Z,98237.63
2023-01-13T14:36:21.319Z,98244.56
2023-01-13T14:39:34.923Z,98252.69
2023-01-13T14:42:04.000Z,98247.34
2023-01-13T14:44:36.195Z,98260.78
2023-01-13T14:47:24.776Z,98257.41
2023-01-13T14:50:03.875Z,98267.06
2023-01-13T14:52:47.883Z,98274.34
2023-01-13T14:55:31.468Z,98275.63
2023-01-13T14:58:27.016Z,98282.56
2023-01-13T15:01:30.414Z,98287.22
2023-01-13T15:04:18.078Z,98284.00
2023-01-13T15:06:54.421Z,98298.13
2023-01-13T15:09:30.169Z,98307.50
2023-01-13T15:11:59.779Z,98313.53
2023-01-13T15:14:33.894Z,98329.41
2023-01-13T15:17:04.112Z,98336.38
2023-01-13T15:19:33.163Z,98333.81
2023-01-13T15:22:02.084Z,98339.50
2023-01-13T15:24:32.841Z,98338.56
2023-01-13T15:27:02.571Z,98345.28
2023-01-13T15:29:31.483Z,98351.44
2023-01-13T15:32:00.452Z,98345.28
2023-01-13T15:34:29.300Z,98348.63
2023-01-13T15:36:58.700Z,98349.91
2023-01-13T15:39:27.537Z,98348.16
2023-01-13T15:42:16.091Z,98341.09
2023-01-13T15:45:02.105Z,98340.59
2023-01-13T15:47:30.879Z,98349.16
2023-01-13T15:49:59.978Z,98343.22
2023-01-13T15:52:29.588Z,98349.44
2023-01-13T15:54:58.725Z,98352.06
2023-01-13T15:57:32.932Z,98355.78
2023-01-13T16:00:08.125Z,98356.19
2023-01-13T16:02:37.036Z,98361.66
2023-01-13T16:05:06.987Z,98358.41
2023-01-13T16:07:39.549Z,98356.19
2023-01-13T16:10:20.327Z,98355.59
2023-01-13T16:12:57.286Z,98360.91
2023-01-13T16:15:26.531Z,98361.81
2023-01-13T16:18:01.107Z,98353.72
2023-01-13T16:20:30.759Z,98361.09
2023-01-13T16:22:59.519Z,98358.75
2023-01-13T16:25:29.465Z,98355.47
2023-01-13T16:27:59.579Z,98369.81
2023-01-13T16:30:32.155Z,98373.97
2023-01-13T16:33:01.478Z,98368.50
2023-01-13T16:35:32.097Z,98368.38
2023-01-13T16:38:02.994Z,98363.63
2023-01-13T16:40:36.586Z,98360.81
2023-01-13T16:43:07.009Z,98361.13
2023-01-13T16:45:36.119Z,98366.75
2023-01-13T16:48:05.607Z,98361.66
2023-01-13T16:50:40.004Z,98366.44
2023-01-13T16:53:13.091Z,98370.13
2023-01-13T16:55:45.071Z,98383.59
2023-01-13T16:58:21.589Z,98388.28
2023-01-13T17:01:06.288Z,98390.94
2023-01-13T17:03:36.129Z,98396.16
2023-01-13T17:06:06.486Z,98396.00
2023-01-13T17:08:37.714Z,98412.97
2023-01-13T17:11:07.755Z,98426.69
2023-01-13T17:13:38.074Z,98420.97
2023-01-13T17:16:21.134Z,98421.16
2023-01-13T17:18:52.280Z,98440.63
2023-01-13T17:21:21.354Z,98439.34
2023-01-13T17:23:51.641Z,98430.72
2023-01-13T17:26:33.900Z,98438.16
2023-01-13T17:29:05.787Z,98430.25
2023-01-13T17:31:37.057Z,98431.28
2023-01-13T17:34:06.693Z,98435.41
2023-01-13T17:36:36.316Z,98447.09
2023-01-13T17:39:05.406Z,98442.34
2023-01-13T17:41:34.103Z,98444.22
2023-01-13T17:44:15.716Z,98448.28
2023-01-13T17:46:45.302Z,98447.03
2023-01-13T17:49:22.007Z,98464.75
2023-01-13T17:51:51.612Z,98454.78
2023-01-13T17:54:22.309Z,98454.88
2023-01-13T17:56:51.308Z,98467.22
2023-01-13T17:59:25.580Z,98455.25
2023-01-13T18:02:19.385Z,98463.56
2023-01-13T18:04:52.002Z,98467.38
2023-01-13T18:07:20.749Z,98468.56
2023-01-13T18:09:49.521Z,98468.34
2023-01-13T18:12:18.357Z,98479.13
2023-01-13T18:14:50.451Z,98487.41
2023-01-13T18:17:19.255Z,98479.44
2023-01-13T18:20:13.857Z,98481.84
2023-01-13T18:22:59.846Z,98483.34
2023-01-13T18:25:46.789Z,98491.53
2023-01-13T18:28:27.788Z,98489.94
2023-01-13T18:30:57.997Z,98498.88
2023-01-13T18:33:27.056Z,98492.06
2023-01-13T18:35:57.358Z,98493.69
2023-01-13T18:38:26.630Z,98494.44
2023-01-13T18:40:55.473Z,98493.25
2023-01-13T18:43:23.255Z,98501.44
2023-01-13T18:45:53.649Z,98503.44
2023-01-13T18:48:23.895Z,98492.66
2023-01-13T18:50:52.811Z,98502.56
2023-01-13T18:53:21.561Z,98512.75
2023-01-13T18:55:50.642Z,98502.72
2023-01-13T18:58:20.623Z,98511.22
2023-01-13T19:00:49.368Z,98510.97
2023-01-13T19:03:29.927Z,98517.19
2023-01-13T19:06:07.549Z,98531.56
2023-01-13T19:08:41.213Z,98522.28
2023-01-13T19:11:10.949Z,98529.94
2023-01-13T19:13:40.226Z,98528.66
2023-01-13T19:16:10.213Z,98516.97
2023-01-13T19:18:39.550Z,98514.38
2023-01-13T19:21:16.710Z,98533.63
2023-01-13T19:23:45.631Z,98519.13
2023-01-13T19:26:15.303Z,98540.19
2023-01-13T19:28:44.784Z,98541.63
2023-01-13T19:31:15.730Z,98547.53
2023-01-13T19:33:44.895Z,98544.44
2023-01-13T19:36:15.712Z,98558.75
2023-01-13T19:38:47.428Z,98558.41
2023-01-13T19:41:29.947Z,98558.75
2023-01-13T19:44:28.358Z,98567.28
2023-01-13T19:46:57.798Z,98582.44
2023-01-13T19:49:27.076Z,98568.59
2023-01-13T19:52:00.282Z,98575.19
2023-01-13T19:54:32.944Z,98576.81
2023-01-13T19:57:03.032Z,98578.44
2023-01-13T19:59:40.911Z,98585.63
2023-01-13T20:02:27.531Z,98597.69
2023-01-13T20:05:05.719Z,98598.03
2023-01-13T20:07:36.287Z,98595.63
2023-01-13T20:10:06.107Z,98598.28
2023-01-13T20:12:34.853Z,98595.16
2023-01-13T20:15:06.352Z,98606.19
2023-01-13T20:17:35.395Z,98595.91
2023-01-13T20:20:04.843Z,98608.34
2023-01-13T20:22:33.525Z,98603.84
2023-01-13T20:25:03.787Z,98606.25
2023-01-13T20:27:32.570Z,98600.94
2023-01-13T20:30:01.721Z,98609.22
2023-01-13T20:32:30.548Z,98620.06
2023-01-13T20:34:59.231Z,98618.16
2023-01-13T20:37:28.549Z,98620.00
2023-01-13T20:39:58.234Z,98614.31
2023-01-13T20:42:32.089Z,98626.59
2023-01-13T20:45:02.406Z,98630.06
2023-01-13T20:47:32.158Z,98632.09
2023-01-13T20:50:00.827Z,98621.66
2023-01-13T20:52:30.036Z,98632.31
2023-01-13T20:55:01.094Z,98622.09
2023-01-13T20:57:31.602Z,98628.88
2023-01-13T21:00:00.651Z,98633.69
2023-01-13T21:02:29.587Z,98635.06
2023-01-13T21:04:58.396Z,98641.19
2023-01-13T21:07:28.294Z,98630.53
2023-01-13T21:09:58.429Z,98636.22
2023-01-13T21:12:44.526Z,98634.75
2023-01-13T21:15:22.084Z,98632.16
2023-01-13T21:18:10.477Z,98636.88
2023-01-13T21:20:40.289Z,98633.91
2023-01-13T21:23:12.065Z,98645.38
2023-01-13T21:25:41.244Z,98643.28
2023-01-13T21:28:11.990Z,98643.44
2023-01-13T21:30:42.985Z,98639.09
2023-01-13T21:33:14.814Z,98651.38
2023-01-13T21:35:43.656Z,98638.28
2023-01-13T21:38:13.873Z,98648.13
2023-01-13T21:40:42.953Z,98638.34
2023-01-13T21:43:39.877Z,98642.19
2023-01-13T21:46:32.063Z,98661.88
2023-01-13T21:49:01.087Z,98662.50
2023-01-13T21:51:35.796Z,98659.03
2023-01-13T21:54:04.721Z,98662.16
2023-01-13T21:56:33.899Z,98657.47
2023-01-13T21:59:05.733Z,98668.78
2023-01-13T22:01:36.314Z,98669.97
2023-01-13T22:04:25.239Z,98676.16
2023-01-13T22:06:54.188Z,98680.69
2023-01-13T22:09:22.969Z,98684.16
2023-01-13T22:11:52.188Z,98695.03
2023-01-13T22:14:21.434Z,98691.78
2023-01-13T22:16:51.643Z,98699.53
2023-01-13T22:19:39.429Z,98700.34
2023-01-13T22:22:14.409Z,98702.78
2023-01-13T22:24:44.332Z,98704.84
2023-01-13T22:27:13.972Z,98702.63
2023-01-13T22:29:42.927Z,98703.22
2023-01-13T22:32:13.682Z,98708.56
2023-01-13T22:34:42.869Z,98717.19
2023-01-13T22:37:11.911Z,98709.03
2023-01-13T22:39:41.107Z,98714.13
2023-01-13T22:42:10.252Z,98717.66
2023-01-13T22:44:38.983Z,98731.81
2023-01-13T22:47:08.718Z,98740.16
2023-01-13T22:49:38.844Z,98740.31
2023-01-13T22:52:07.579Z,98744.84
2023-01-13T22:54:36.303Z,98751.97
2023-01-13T22:57:05.245Z,98745.97
2023-01-13T22:59:34.015Z,98740.44
2023-01-13T23:02:02.828Z,98751.47
2023-01-13T23:04:31.710Z,98750.38
2023-01-13T23:07:01.882Z,98753.88
2023-01-13T23:09:30.968Z,98757.50
2023-01-13T23:12:00.232Z,98752.22
2023-01-13T23:14:28.922Z,98759.19
2023-01-13T23:16:57.724Z,98761.25
2023-01-13T23:19:26.493Z,98761.88
2023-01-13T23:21:55.192Z,98768.25
2023-01-13T23:24:27.978Z,98768.91
2023-01-13T23:26:56.753Z,98776.72
2023-01-13T23:29:25.424Z,98774.88
2023-01-13T23:31:57.186Z,98761.34
2023-01-13T23:34:26.155Z,98769.16
2023-01-13T23:36:54.853Z,98767.53
2023-01-13T23:39:25.459Z,98767.97
2023-01-13T23:41:55.770Z,98773.28
2023-01-13T23:44:24.766Z,98769.69
2023-01-13T23:46:53.564Z,98773.56
2023-01-13T23:49:22.546Z,98768.69
2023-01-13T23:51:52.048Z,98780.75
2023-01-13T23:54:21.277Z,98780.16
2023-01-13T23:56:53.738Z,98780.38
2023-01-13T23:59:22.907Z,98775.06
